Time;durP1;ratioP1;P1;durP2;ratioP2;P2;SDS_P1;SDS_P2;PMS_P1;PMS_P2;Temp;Humidity;BMP_temperature;BMP_pressure;BME280_temperature;BME280_humidity;BME280_pressure;Samples;Min_cycle;Max_cycle;Signal;HPM_P1;HPM_P2
2023/04/13 04:03:11;;;;;;;1.63;0.30;;;8.70;99.90;;;;;;4932276;29;20680;-77
2023/04/13 04:05:40;;;;;;;0.70;0.30;;;8.50;99.90;;;;;;4933394;29;20516;-80
2023/04/13 04:08:07;;;;;;;0.87;0.53;;;8.50;99.90;;;;;;4932889;29;20480;-79
2023/04/13 04:10:36;;;;;;;0.70;0.30;;;8.60;99.90;;;;;;4936411;29;20472;-79
2023/04/13 04:13:03;;;;;;;0.60;0.20;;;8.60;99.90;;;;;;4930691;29;20449;-81
2023/04/13 04:15:31;;;;;;;0.53;0.17;;;8.50;99.90;;;;;;4939112;23;20492;-77
2023/04/13 04:18:00;;;;;;;0.50;0.10;;;8.50;99.90;;;;;;4936562;29;20954;-77
2023/04/13 04:20:29;;;;;;;1.87;0.20;;;8.60;99.90;;;;;;4936288;29;20443;-77
2023/04/13 04:22:59;;;;;;;0.50;0.10;;;8.60;99.90;;;;;;4935721;29;20971;-78
2023/04/13 04:25:27;;;;;;;0.50;0.10;;;8.70;99.90;;;;;;4936115;29;20671;-78
2023/04/13 04:27:56;;;;;;;0.50;0.10;;;8.70;99.90;;;;;;4939082;29;20447;-78
2023/04/13 04:30:28;;;;;;;0.50;0.10;;;8.90;99.90;;;;;;4935893;29;20875;-78
2023/04/13 04:32:56;;;;;;;0.50;0.10;;;8.90;99.90;;;;;;4935848;29;20476;-78
2023/04/13 04:35:31;;;;;;;0.50;0.20;;;8.90;99.90;;;;;;4935061;29;21008;-78
2023/04/13 04:38:03;;;;;;;0.60;0.20;;;;;;;;;;4932817;29;20447;-79
2023/04/13 04:40:34;;;;;;;0.50;0.10;;;9.00;99.90;;;;;;4935113;29;20451;-78
2023/04/13 04:43:03;;;;;;;0.60;0.10;;;9.00;99.90;;;;;;4935611;29;20539;-78
2023/04/13 04:45:31;;;;;;;0.60;0.30;;;9.00;99.90;;;;;;4935856;29;20479;-77
2023/04/13 04:48:01;;;;;;;0.50;0.10;;;9.00;99.90;;;;;;4935310;29;20464;-78
2023/04/13 04:50:30;;;;;;;0.60;0.20;;;9.00;99.90;;;;;;4936235;29;20575;-78
2023/04/13 04:52:59;;;;;;;0.50;0.10;;;9.00;99.90;;;;;;4935114;29;20651;-77
2023/04/13 04:55:28;;;;;;;1.47;1.07;;;9.10;99.90;;;;;;4935188;29;20481;-78
2023/04/13 04:57:56;;;;;;;0.50;0.20;;;9.10;99.90;;;;;;4936314;29;20459;-78
2023/04/13 05:00:25;;;;;;;0.57;0.20;;;;;;;;;;4923520;29;20510;-81
2023/04/13 05:02:56;;;;;;;0.50;0.10;;;9.20;99.90;;;;;;4937483;29;20458;-78
2023/04/13 05:05:25;;;;;;;0.50;0.10;;;9.20;99.90;;;;;;4940858;29;20817;-78
2023/04/13 05:07:57;;;;;;;0.50;0.10;;;9.30;99.90;;;;;;4941251;29;20451;-78
2023/04/13 05:10:27;;;;;;;0.50;0.10;;;9.20;99.90;;;;;;4939510;29;20489;-78
2023/04/13 05:12:56;;;;;;;0.50;0.10;;;9.20;99.90;;;;;;4940202;29;20463;-80
2023/04/13 05:15:25;;;;;;;0.53;0.10;;;9.20;99.90;;;;;;4925188;29;20484;-80
2023/04/13 05:17:53;;;;;;;0.60;0.20;;;9.20;99.90;;;;;;4939907;29;20458;-79
2023/04/13 05:20:21;;;;;;;0.50;0.20;;;9.30;99.90;;;;;;4939704;29;20510;-79
2023/04/13 05:22:49;;;;;;;0.50;0.10;;;9.30;99.90;;;;;;4939619;29;20498;-78
2023/04/13 05:25:17;;;;;;;0.80;0.40;;;9.30;99.90;;;;;;4939025;29;21020;-78
2023/04/13 05:27:46;;;;;;;0.60;0.20;;;;;;;;;;4939615;29;20452;-78
2023/04/13 05:30:15;;;;;;;0.60;0.30;;;9.10;99.90;;;;;;4940273;29;20495;-78
2023/04/13 05:32:43;;;;;;;0.50;0.10;;;9.20;99.90;;;;;;4932443;29;20469;-78
2023/04/13 05:35:11;;;;;;;0.60;0.20;;;9.10;99.90;;;;;;4940754;29;20489;-78
2023/04/13 05:37:39;;;;;;;0.77;0.40;;;9.10;99.90;;;;;;4926090;29;20804;-78
2023/04/13 05:40:12;;;;;;;0.50;0.20;;;9.10;99.90;;;;;;4935395;29;20814;-78
2023/04/13 05:42:41;;;;;;;0.50;0.10;;;9.10;99.90;;;;;;4930853;29;20504;-78
2023/04/13 05:45:10;;;;;;;0.60;0.50;;;9.10;99.90;;;;;;4928363;29;21017;-78
2023/04/13 05:47:39;;;;;;;0.50;0.10;;;9.20;99.90;;;;;;4940377;29;20467;-78
2023/04/13 05:50:08;;;;;;;0.60;0.40;;;9.10;99.90;;;;;;4940421;29;20480;-78
2023/04/13 05:52:36;;;;;;;0.50;0.20;;;9.20;99.90;;;;;;4940243;29;20450;-78
2023/04/13 05:55:05;;;;;;;0.50;0.10;;;9.20;99.90;;;;;;4939409;29;20467;-78
2023/04/13 05:57:33;;;;;;;0.50;0.10;;;9.20;99.90;;;;;;4941259;29;20491;-79
2023/04/13 06:00:02;;;;;;;8.63;3.33;;;9.20;99.90;;;;;;4940542;29;20510;-78
2023/04/13 06:02:30;;;;;;;0.70;0.30;;;9.10;99.90;;;;;;4940382;29;20458;-77
2023/04/13 06:05:00;;;;;;;0.50;0.10;;;9.10;99.90;;;;;;4940264;29;20499;-77
2023/04/13 06:07:28;;;;;;;0.50;0.10;;;9.00;99.90;;;;;;4939985;29;20454;-79
2023/04/13 06:09:56;;;;;;;0.60;0.20;;;9.10;99.90;;;;;;4936634;29;20864;-79
2023/04/13 06:12:24;;;;;;;0.50;0.10;;;;;;;;;;4939481;29;20464;-78
2023/04/13 06:14:53;;;;;;;0.50;0.10;;;9.20;99.90;;;;;;4941652;29;20476;-78
2023/04/13 06:17:20;;;;;;;0.50;0.10;;;9.20;99.90;;;;;;4940260;29;20437;-77
2023/04/13 06:19:49;;;;;;;0.60;0.10;;;;;;;;;;4940541;29;20859;-78
2023/04/13 06:22:18;;;;;;;0.50;0.10;;;;;;;;;;4942780;29;20453;-78
2023/04/13 06:24:46;;;;;;;0.60;0.20;;;;;;;;;;4943136;29;20454;-78
2023/04/13 06:27:15;;;;;;;1.83;0.63;;;;;;;;;;4942327;29;20974;-78
2023/04/13 06:29:43;;;;;;;0.70;0.40;;;;;;;;;;4939973;29;20530;-78
2023/04/13 06:32:12;;;;;;;0.50;0.20;;;;;;;;;;4940598;29;20491;-76
2023/04/13 06:34:40;;;;;;;0.50;0.10;;;;;;;;;;4940371;29;20459;-77
2023/04/13 06:37:08;;;;;;;0.70;0.53;;;;;;;;;;4941196;29;20480;-79
2023/04/13 06:39:38;;;;;;;0.50;0.20;;;;;;;;;;4939718;29;20539;-79
2023/04/13 06:42:06;;;;;;;0.60;0.30;;;;;;;;;;4939662;29;20457;-77
2023/04/13 06:44:35;;;;;;;0.90;0.60;;;;;;;;;;4939535;29;20483;-78
2023/04/13 06:47:04;;;;;;;0.53;0.10;;;;;;;;;;4940041;29;20798;-78
2023/04/13 06:49:32;;;;;;;0.50;0.10;;;9.20;99.90;;;;;;4940273;29;20955;-79
2023/04/13 06:52:01;;;;;;;0.60;0.23;;;;;;;;;;4940601;29;20481;-76
2023/04/13 06:54:35;;;;;;;0.50;0.10;;;9.20;99.90;;;;;;4940875;29;20450;-77
2023/04/13 06:57:05;;;;;;;0.50;0.10;;;;;;;;;;4942079;29;20827;-79
2023/04/13 06:59:33;;;;;;;0.60;0.20;;;;;;;;;;4940144;29;20428;-79
2023/04/13 07:02:01;;;;;;;0.50;0.20;;;;;;;;;;4936454;29;20449;-77
2023/04/13 07:04:30;;;;;;;1.17;0.60;;;;;;;;;;4938834;29;20447;-77
2023/04/13 07:07:01;;;;;;;1.10;0.33;;;;;;;;;;4939469;29;20534;-76
2023/04/13 07:09:30;;;;;;;0.77;0.20;;;10.80;99.90;;;;;;4934948;29;21079;-78
2023/04/13 07:12:04;;;;;;;0.50;0.10;;;9.30;99.90;;;;;;4944962;29;20524;-80
2023/04/13 07:14:33;;;;;;;1.57;0.80;;;;;;;;;;4925551;29;20872;-80
2023/04/13 07:17:01;;;;;;;0.50;0.10;;;9.30;99.90;;;;;;4929784;29;20468;-78
2023/04/13 07:19:30;;;;;;;1.53;0.70;;;;;;;;;;4921101;29;20457;-80
2023/04/13 07:21:59;;;;;;;0.50;0.20;;;;;;;;;;4922523;29;20464;-77
2023/04/13 07:24:27;;;;;;;0.50;0.10;;;9.40;99.90;;;;;;4932469;29;20462;-81
2023/04/13 07:26:58;;;;;;;2.33;2.23;;;9.50;99.90;;;;;;4933445;29;20837;-76
2023/04/13 07:29:27;;;;;;;0.60;0.30;;;9.50;99.90;;;;;;4945139;29;21182;-78
2023/04/13 07:32:00;;;;;;;0.77;0.50;;;9.50;99.90;;;;;;4949843;29;20491;-77
2023/04/13 07:34:28;;;;;;;0.60;0.20;;;9.50;99.90;;;;;;4951277;29;20931;-77
2023/04/13 07:36:56;;;;;;;0.80;0.40;;;9.30;99.90;;;;;;4952573;29;20484;-77
2023/04/13 07:39:26;;;;;;;0.50;0.10;;;;;;;;;;4943887;29;20460;-79
2023/04/13 07:41:57;;;;;;;0.60;0.30;;;;;;;;;;4940619;29;20459;-75
2023/04/13 07:44:26;;;;;;;0.50;0.10;;;9.30;99.90;;;;;;4939765;29;20456;-79
2023/04/13 07:46:55;;;;;;;0.50;0.10;;;9.40;99.90;;;;;;4940803;29;20557;-78
2023/04/13 07:49:23;;;;;;;0.90;0.37;;;9.40;99.90;;;;;;4941433;29;20509;-77
2023/04/13 07:51:52;;;;;;;0.60;0.30;;;9.30;99.90;;;;;;4929900;29;20491;-78
2023/04/13 07:54:20;;;;;;;2.10;0.50;;;9.20;99.90;;;;;;4939910;29;20504;-78
2023/04/13 07:56:49;;;;;;;6.00;0.40;;;9.10;99.90;;;;;;4932869;29;20469;-79
2023/04/13 07:59:17;;;;;;;0.90;0.37;;;9.10;99.90;;;;;;4943628;29;20459;-78
2023/04/13 08:01:46;;;;;;;0.70;0.50;;;9.20;99.90;;;;;;4943038;29;20460;-77
2023/04/13 08:04:14;;;;;;;1.53;0.67;;;9.20;99.90;;;;;;4945767;29;20509;-79
2023/04/13 08:06:52;;;;;;;0.50;0.10;;;;;;;;;;4931204;29;20547;-79
2023/04/13 08:09:29;;;;;;;1.33;0.53;;;;;;;;;;4931893;29;20961;-78
2023/04/13 08:12:05;;;;;;;0.50;0.10;;;;;;;;;;4944526;29;20487;-78
2023/04/13 08:14:43;;;;;;;0.53;0.10;;;;;;;;;;4943376;29;20451;-78
2023/04/13 08:17:18;;;;;;;1.23;0.30;;;;;;;;;;4944349;29;20543;-77
2023/04/13 08:19:51;;;;;;;0.60;0.20;;;;;;;;;;4945846;28;20559;-77
2023/04/13 08:22:36;;;;;;;0.50;0.10;;;;;;;;;;4942000;29;20452;-78
2023/04/13 08:25:06;;;;;;;0.70;0.43;;;;;;;;;;4942926;29;20475;-79
2023/04/13 08:27:41;;;;;;;0.50;0.10;;;;;;;;;;4939664;29;20464;-78
2023/04/13 08:30:11;;;;;;;0.50;0.30;;;;;;;;;;4923270;29;20461;-77
2023/04/13 08:32:41;;;;;;;0.93;0.60;;;;;;;;;;4930267;29;20484;-76
2023/04/13 08:35:10;;;;;;;0.50;0.20;;;9.20;99.90;;;;;;4926175;29;20484;-77
2023/04/13 08:37:38;;;;;;;0.63;0.20;;;9.20;99.90;;;;;;4925578;29;20958;-76
2023/04/13 08:40:10;;;;;;;0.60;0.20;;;9.30;99.90;;;;;;4940078;29;20911;-77
2023/04/13 08:42:39;;;;;;;0.60;0.20;;;9.40;99.90;;;;;;4936213;29;20433;-77
2023/04/13 08:45:08;;;;;;;0.50;0.20;;;9.30;99.90;;;;;;4939124;29;20460;-78
2023/04/13 08:47:36;;;;;;;0.50;0.10;;;9.40;99.90;;;;;;4943679;29;20448;-78
2023/04/13 08:50:07;;;;;;;0.60;0.20;;;9.60;99.90;;;;;;4941193;29;20472;-76
2023/04/13 08:52:36;;;;;;;0.60;0.20;;;9.50;99.90;;;;;;4925066;29;20491;-78
2023/04/13 08:55:06;;;;;;;0.60;0.30;;;9.60;99.90;;;;;;4939963;29;20480;-77
2023/04/13 08:57:36;;;;;;;0.50;0.10;;;9.50;99.90;;;;;;4930370;29;20839;-78
2023/04/13 09:00:10;;;;;;;0.50;0.10;;;9.50;99.90;;;;;;4944474;29;20532;-77
2023/04/13 09:02:39;;;;;;;0.87;0.37;;;9.60;99.90;;;;;;4928708;29;20452;-78
2023/04/13 09:05:29;;;;;;;0.60;0.10;;;9.70;99.90;;;;;;4933782;29;20504;-79
2023/04/13 09:08:03;;;;;;;0.60;0.30;;;;;;;;;;4936209;29;20454;-79
2023/04/13 09:10:31;;;;;;;0.50;0.10;;;9.90;99.90;;;;;;4928760;29;20449;-79
2023/04/13 09:13:00;;;;;;;0.50;0.20;;;;;;;;;;4931359;29;21000;-78
2023/04/13 09:15:29;;;;;;;5.63;0.67;;;;;;;;;;4946189;29;20496;-77
2023/04/13 09:18:06;;;;;;;0.50;0.10;;;9.70;99.90;;;;;;4945398;29;20460;-78
2023/04/13 09:20:37;;;;;;;0.87;0.30;;;9.80;99.90;;;;;;4946410;29;20468;-79
2023/04/13 09:23:14;;;;;;;9.30;1.13;;;9.90;99.90;;;;;;4947788;29;20452;-78
2023/04/13 09:25:42;;;;;;;0.60;0.30;;;10.00;99.90;;;;;;4939138;29;20480;-76
2023/04/13 09:28:17;;;;;;;0.60;0.40;;;10.00;99.90;;;;;;4943026;29;20963;-77
2023/04/13 09:30:45;;;;;;;5.40;1.73;;;10.10;99.90;;;;;;4938335;29;20477;-78
2023/04/13 09:33:15;;;;;;;0.60;0.20;;;10.20;99.90;;;;;;4938741;29;20499;-78
2023/04/13 09:35:45;;;;;;;0.57;0.20;;;10.20;99.90;;;;;;4919088;29;20480;-79
2023/04/13 09:38:15;;;;;;;0.60;0.10;;;10.20;99.90;;;;;;4920122;29;20456;-77
2023/04/13 09:40:52;;;;;;;0.60;0.10;;;10.20;99.90;;;;;;4920899;29;20459;-78
2023/04/13 09:43:21;;;;;;;0.60;0.30;;;10.00;99.90;;;;;;4930067;29;20999;-78
2023/04/13 09:45:49;;;;;;;0.60;0.30;;;10.00;99.90;;;;;;4938568;29;20481;-78
2023/04/13 09:48:19;;;;;;;0.50;0.10;;;10.10;99.90;;;;;;4939674;29;20515;-77
2023/04/13 09:50:59;;;;;;;0.83;0.83;;;10.10;99.90;;;;;;4937661;29;20441;-77
2023/04/13 09:53:28;;;;;;;0.50;0.10;;;;;;;;;;4932321;29;20514;-77
2023/04/13 09:55:57;;;;;;;0.60;0.30;;;10.20;99.90;;;;;;4940961;29;20463;-77
2023/04/13 09:58:26;;;;;;;0.50;0.10;;;;;;;;;;4941049;29;20450;-78
2023/04/13 10:00:54;;;;;;;0.70;0.37;;;10.20;99.90;;;;;;4943426;29;20500;-77
2023/04/13 10:03:22;;;;;;;0.60;0.10;;;10.20;99.90;;;;;;4940770;29;20452;-76
2023/04/13 10:05:51;;;;;;;0.60;0.23;;;;;;;;;;4945404;29;20473;-78
2023/04/13 10:08:28;;;;;;;0.50;0.10;;;10.10;99.90;;;;;;4937233;29;20445;-77
2023/04/13 10:11:11;;;;;;;1.23;0.63;;;10.10;99.90;;;;;;4939540;29;20531;-77
2023/04/13 10:13:48;;;;;;;0.53;0.20;;;10.10;99.90;;;;;;4942605;29;20540;-77
2023/04/13 10:16:41;;;;;;;0.60;0.20;;;10.10;99.90;;;;;;4947068;29;20614;-77
2023/04/13 10:19:11;;;;;;;0.60;0.10;;;10.10;99.90;;;;;;4940426;29;20460;-77
2023/04/13 10:21:43;;;;;;;0.70;0.30;;;10.10;99.90;;;;;;4947471;29;20441;-79
2023/04/13 10:24:14;;;;;;;0.60;0.10;;;;;;;;;;4946029;29;20994;-80
2023/04/13 10:26:43;;;;;;;0.60;0.20;;;10.10;99.90;;;;;;4942206;29;20515;-78
2023/04/13 10:29:13;;;;;;;0.53;0.10;;;10.20;99.90;;;;;;4936912;29;20540;-77
2023/04/13 10:31:45;;;;;;;0.50;0.10;;;10.30;99.90;;;;;;4938801;29;20478;-79
2023/04/13 10:34:24;;;;;;;0.50;0.10;;;10.40;99.90;;;;;;4934991;29;20495;-78
2023/04/13 10:36:55;;;;;;;2.30;0.43;;;10.50;99.90;;;;;;4941601;29;20504;-79
2023/04/13 10:39:29;;;;;;;0.70;0.50;;;10.50;99.90;;;;;;4939940;29;20451;-78
2023/04/13 10:42:01;;;;;;;0.60;0.10;;;10.50;99.90;;;;;;4940481;29;20450;-77
2023/04/13 10:44:29;;;;;;;0.53;0.10;;;10.60;99.90;;;;;;4934268;29;20445;-77
2023/04/13 10:47:04;;;;;;;0.60;0.20;;;10.80;99.90;;;;;;4942306;29;20500;-77
2023/04/13 10:49:32;;;;;;;0.60;0.20;;;10.80;99.90;;;;;;4940692;29;20466;-81
2023/04/13 10:52:00;;;;;;;2.87;0.40;;;10.60;99.90;;;;;;4938739;29;20454;-79
2023/04/13 10:54:30;;;;;;;0.60;0.20;;;10.70;99.90;;;;;;4939379;29;20492;-78
2023/04/13 10:56:58;;;;;;;0.60;0.20;;;10.70;99.90;;;;;;4941600;29;20464;-78
2023/04/13 10:59:40;;;;;;;0.60;0.10;;;10.80;99.90;;;;;;4958009;28;20875;-75
2023/04/13 11:02:29;;;;;;;0.60;0.20;;;11.20;99.90;;;;;;4954814;28;20448;-79
2023/04/13 11:04:59;;;;;;;0.60;0.10;;;11.10;99.90;;;;;;4938769;29;20507;-78
2023/04/13 11:07:27;;;;;;;0.80;0.40;;;11.20;99.90;;;;;;4931197;29;20563;-77
2023/04/13 11:09:58;;;;;;;0.60;0.10;;;11.10;99.90;;;;;;4936036;29;20512;-77
2023/04/13 11:12:29;;;;;;;0.60;0.10;;;11.20;99.90;;;;;;4927161;29;21277;-80
2023/04/13 11:14:56;;;;;;;0.60;0.10;;;11.50;99.90;;;;;;4935605;29;20519;-79
2023/04/13 11:17:24;;;;;;;0.60;0.10;;;11.70;99.90;;;;;;4936100;29;20541;-77
2023/04/13 11:19:54;;;;;;;0.60;0.10;;;11.90;99.90;;;;;;4933980;29;20478;-78
2023/04/13 11:22:26;;;;;;;1.17;0.43;;;12.10;99.90;;;;;;4927412;29;20455;-78
2023/04/13 11:25:05;;;;;;;0.60;0.20;;;;;;;;;;4936258;29;20481;-79
2023/04/13 11:27:35;;;;;;;0.60;0.10;;;12.00;99.90;;;;;;4937908;29;20925;-77
2023/04/13 11:30:08;;;;;;;0.60;0.20;;;12.10;99.90;;;;;;4928543;29;20459;-77
2023/04/13 11:32:37;;;;;;;0.60;0.10;;;12.10;99.90;;;;;;4931235;29;20442;-78
2023/04/13 11:35:06;;;;;;;0.80;0.30;;;12.10;99.90;;;;;;4938839;29;20481;-78
2023/04/13 11:37:38;;;;;;;0.60;0.10;;;12.10;99.90;;;;;;4940614;29;20447;-78
2023/04/13 11:40:11;;;;;;;0.60;0.10;;;12.10;99.90;;;;;;4939740;29;20459;-77
2023/04/13 11:42:45;;;;;;;0.60;0.10;;;12.20;99.90;;;;;;4921815;29;20449;-79
2023/04/13 11:45:15;;;;;;;0.60;0.10;;;12.30;99.90;;;;;;4927400;29;20473;-79
2023/04/13 11:47:43;;;;;;;0.60;0.10;;;12.10;99.90;;;;;;4939717;29;20462;-77
2023/04/13 11:50:12;;;;;;;0.90;0.50;;;12.00;99.90;;;;;;4930319;29;20466;-77
2023/04/13 11:52:43;;;;;;;0.60;0.10;;;12.00;99.90;;;;;;4938495;29;20815;-77
2023/04/13 11:55:11;;;;;;;0.60;0.10;;;12.00;99.90;;;;;;4937119;29;20478;-79
2023/04/13 11:57:52;;;;;;;0.60;0.10;;;12.00;99.90;;;;;;4924244;29;20555;-76
2023/04/13 12:00:26;;;;;;;0.90;0.40;;;12.00;99.90;;;;;;4935462;29;20454;-77
2023/04/13 12:02:57;;;;;;;0.60;0.10;;;12.00;99.90;;;;;;4930509;29;20960;-81
2023/04/13 12:05:31;;;;;;;0.60;0.10;;;11.80;99.90;;;;;;4929993;29;20471;-78
2023/04/13 12:08:01;;;;;;;0.60;0.10;;;11.60;99.90;;;;;;4935966;28;21058;-78
2023/04/13 12:10:33;;;;;;;1.00;0.20;;;11.40;99.90;;;;;;4929296;29;20450;-77
2023/04/13 12:13:08;;;;;;;0.60;0.10;;;11.40;99.90;;;;;;4938300;29;20440;-80
2023/04/13 12:15:51;;;;;;;0.60;0.10;;;11.30;99.90;;;;;;4933054;29;20479;-79
2023/04/13 12:18:43;;;;;;;0.60;0.10;;;;;;;;;;4925544;29;20432;-78
2023/04/13 12:21:25;;;;;;;0.60;0.20;;;11.50;99.90;;;;;;4937240;29;20441;-79
2023/04/13 12:23:54;;;;;;;0.70;0.53;;;11.40;99.90;;;;;;4944728;29;20860;-78
2023/04/13 12:26:24;;;;;;;0.60;0.10;;;11.70;99.90;;;;;;4950963;29;21057;-77
2023/04/13 12:29:14;;;;;;;0.60;0.23;;;12.00;99.90;;;;;;4950569;29;20437;-78
2023/04/13 12:31:44;;;;;;;0.60;0.10;;;12.20;99.90;;;;;;4951176;29;20454;-77
2023/04/13 12:34:12;;;;;;;0.60;0.10;;;12.30;99.90;;;;;;4941883;29;20553;-78
2023/04/13 12:36:40;;;;;;;0.60;0.10;;;12.40;99.90;;;;;;4951454;29;20988;-78
2023/04/13 12:39:08;;;;;;;0.60;0.10;;;12.40;99.90;;;;;;4951326;29;20963;-76
2023/04/13 12:41:36;;;;;;;0.60;0.20;;;12.40;99.90;;;;;;4950224;29;20442;-77
2023/04/13 12:44:04;;;;;;;0.60;0.10;;;12.20;99.90;;;;;;4940017;29;20454;-77
2023/04/13 12:46:34;;;;;;;0.60;0.17;;;12.20;99.90;;;;;;4940810;29;20466;-77
2023/04/13 12:49:01;;;;;;;0.60;0.20;;;12.20;99.90;;;;;;4946330;29;20461;-77
2023/04/13 12:51:30;;;;;;;0.90;0.57;;;12.10;99.90;;;;;;4939196;29;20480;-77
2023/04/13 12:53:58;;;;;;;0.60;0.10;;;12.20;99.90;;;;;;4942911;29;20486;-77
2023/04/13 12:56:26;;;;;;;0.60;0.10;;;12.30;99.90;;;;;;4937501;29;20883;-78
2023/04/13 12:58:53;;;;;;;0.60;0.20;;;12.30;99.90;;;;;;4941033;29;20458;-77
2023/04/13 13:01:21;;;;;;;0.60;0.10;;;12.30;99.90;;;;;;4941732;29;20568;-77
2023/04/13 13:03:50;;;;;;;0.60;0.20;;;12.40;99.90;;;;;;4948242;29;20450;-78
2023/04/13 13:06:18;;;;;;;0.60;0.20;;;12.40;99.90;;;;;;4940760;29;20477;-77
2023/04/13 13:08:46;;;;;;;0.60;0.10;;;12.20;99.90;;;;;;4938839;29;20467;-76
2023/04/13 13:11:14;;;;;;;0.60;0.10;;;12.00;99.90;;;;;;4936894;29;20955;-78
2023/04/13 13:13:42;;;;;;;0.60;0.10;;;11.60;99.90;;;;;;4936440;29;20500;-77
2023/04/13 13:16:10;;;;;;;0.60;0.10;;;11.40;99.90;;;;;;4937483;29;20483;-77
2023/04/13 13:18:38;;;;;;;0.60;0.10;;;11.20;99.90;;;;;;4935004;29;20468;-77
2023/04/13 13:21:19;;;;;;;0.60;0.10;;;10.90;99.90;;;;;;4936560;29;20465;-77
2023/04/13 13:23:47;;;;;;;0.60;0.10;;;10.80;99.90;;;;;;4928172;29;20543;-78
2023/04/13 13:26:15;;;;;;;0.60;0.10;;;10.80;99.90;;;;;;4943132;29;20920;-78
2023/04/13 13:28:46;;;;;;;0.60;0.10;;;;;;;;;;4943598;29;20475;-79
2023/04/13 13:31:15;;;;;;;0.60;0.10;;;10.50;99.90;;;;;;4940689;29;20882;-79
2023/04/13 13:33:43;;;;;;;0.60;0.10;;;10.50;99.90;;;;;;4929038;29;20826;-80
2023/04/13 13:36:12;;;;;;;0.60;0.10;;;10.50;99.90;;;;;;4934377;29;20473;-78
2023/04/13 13:38:42;;;;;;;0.60;0.10;;;;;;;;;;4922511;29;20444;-79
2023/04/13 13:41:10;;;;;;;0.60;0.10;;;10.40;99.90;;;;;;4925837;29;20470;-77
2023/04/13 13:43:38;;;;;;;2.30;0.40;;;10.50;99.90;;;;;;4924452;29;21029;-77
2023/04/13 13:46:06;;;;;;;0.60;0.10;;;10.60;99.90;;;;;;4933158;29;20490;-79
2023/04/13 13:48:36;;;;;;;0.60;0.10;;;10.60;99.90;;;;;;4943112;29;20453;-79
2023/04/13 13:51:03;;;;;;;0.60;0.10;;;10.60;99.90;;;;;;4937625;29;20566;-77
2023/04/13 13:53:34;;;;;;;0.60;0.10;;;10.40;99.90;;;;;;4939899;29;20449;-76
2023/04/13 13:56:04;;;;;;;0.60;0.10;;;10.40;99.90;;;;;;4933425;29;20513;-78
2023/04/13 13:58:32;;;;;;;0.60;0.10;;;10.30;99.90;;;;;;4940579;29;20475;-78
2023/04/13 14:01:01;;;;;;;0.60;0.10;;;10.30;99.90;;;;;;4923371;29;20437;-78
2023/04/13 14:03:29;;;;;;;0.60;0.10;;;10.50;99.90;;;;;;4925074;29;20478;-78
2023/04/13 14:05:57;;;;;;;0.60;0.10;;;;;;;;;;4924725;29;20523;-81
2023/04/13 14:08:25;;;;;;;2.53;2.33;;;10.80;99.90;;;;;;4923387;29;20868;-77
2023/04/13 14:10:53;;;;;;;0.60;0.10;;;10.80;99.90;;;;;;4930684;29;20456;-78
2023/04/13 14:13:23;;;;;;;0.60;0.10;;;11.00;99.90;;;;;;4940546;29;20449;-77
2023/04/13 14:15:51;;;;;;;0.60;0.20;;;11.00;99.90;;;;;;4939699;29;20495;-78
2023/04/13 14:18:19;;;;;;;0.60;0.10;;;11.10;99.90;;;;;;4940681;29;20454;-79
2023/04/13 14:20:48;;;;;;;0.60;0.10;;;11.50;99.90;;;;;;4942042;29;20444;-78
2023/04/13 14:23:17;;;;;;;0.60;0.10;;;11.20;99.90;;;;;;4944458;29;20448;-81
2023/04/13 14:25:45;;;;;;;0.60;0.20;;;11.20;99.90;;;;;;4944846;29;20460;-79
2023/04/13 14:28:13;;;;;;;0.60;0.10;;;11.20;99.90;;;;;;4940688;29;20471;-78
2023/04/13 14:30:43;;;;;;;0.60;0.10;;;11.30;99.90;;;;;;4942611;29;20445;-79
2023/04/13 14:33:12;;;;;;;0.60;0.10;;;11.40;99.90;;;;;;4941408;29;20449;-79
2023/04/13 14:35:40;;;;;;;0.60;0.10;;;11.50;99.90;;;;;;4941226;29;20493;-78
2023/04/13 14:38:08;;;;;;;0.60;0.10;;;11.60;99.90;;;;;;4945025;29;20885;-78
2023/04/13 14:40:36;;;;;;;0.60;0.10;;;11.60;99.90;;;;;;4939298;29;20957;-78
2023/04/13 14:43:04;;;;;;;0.60;0.10;;;11.70;99.90;;;;;;4939572;29;20458;-79
2023/04/13 14:45:32;;;;;;;0.60;0.10;;;11.80;99.90;;;;;;4926584;29;20541;-78
2023/04/13 14:48:01;;;;;;;0.60;0.10;;;12.00;99.90;;;;;;4922590;29;20464;-79
2023/04/13 14:50:29;;;;;;;0.60;0.10;;;12.20;99.90;;;;;;4936695;29;20498;-78
2023/04/13 14:52:57;;;;;;;0.60;0.10;;;11.00;99.90;;;;;;4942177;29;20525;-79
2023/04/13 14:55:26;;;;;;;0.60;0.10;;;12.50;99.90;;;;;;4947943;29;20516;-80
2023/04/13 14:57:56;;;;;;;0.60;0.10;;;12.70;99.90;;;;;;4940242;29;20820;-80
2023/04/13 15:00:37;;;;;;;0.60;0.10;;;12.90;99.90;;;;;;4941901;29;20457;-80
2023/04/13 15:03:07;;;;;;;0.60;0.10;;;13.30;99.90;;;;;;4940819;29;20937;-81
2023/04/13 15:05:37;;;;;;;0.60;0.10;;;13.50;99.90;;;;;;4932579;29;20480;-80
2023/04/13 15:08:06;;;;;;;0.60;0.10;;;13.50;99.90;;;;;;4931230;29;20485;-80
2023/04/13 15:10:34;;;;;;;0.60;0.20;;;13.70;99.90;;;;;;4946208;29;20444;-81
2023/04/13 15:13:03;;;;;;;0.60;0.10;;;;;;;;;;4926259;29;20519;-79
2023/04/13 15:15:32;;;;;;;0.60;0.30;;;;;;;;;;4925925;29;20491;-79
2023/04/13 15:18:00;;;;;;;0.60;0.10;;;13.80;99.90;;;;;;4930242;29;20538;-78
2023/04/13 15:20:31;;;;;;;0.60;0.10;;;;;;;;;;4931654;29;20454;-78
2023/04/13 15:22:59;;;;;;;0.60;0.10;;;13.70;99.90;;;;;;4939230;29;20520;-76
2023/04/13 15:25:27;;;;;;;0.60;0.10;;;13.70;99.90;;;;;;4937274;29;20463;-77
2023/04/13 15:27:57;;;;;;;0.60;0.10;;;13.70;99.90;;;;;;4929053;29;20526;-78
2023/04/13 15:30:26;;;;;;;0.60;0.30;;;13.60;99.90;;;;;;4931960;29;20456;-77
2023/04/13 15:32:56;;;;;;;0.60;0.10;;;13.60;99.90;;;;;;4951936;29;20454;-82
2023/04/13 15:35:26;;;;;;;0.60;0.10;;;13.50;99.90;;;;;;4953620;29;20574;-82
2023/04/13 15:37:56;;;;;;;0.60;0.10;;;;;;;;;;4950991;29;20467;-80
2023/04/13 15:40:24;;;;;;;0.60;0.10;;;13.20;99.90;;;;;;4945134;29;20459;-80
2023/04/13 15:42:53;;;;;;;0.60;0.10;;;;;;;;;;4946815;29;20520;-81
2023/04/13 15:45:21;;;;;;;0.60;0.10;;;;;;;;;;4942641;29;20477;-82
2023/04/13 15:47:50;;;;;;;0.60;0.10;;;;;;;;;;4950528;29;20456;-82
2023/04/13 15:50:19;;;;;;;0.60;0.10;;;12.80;99.90;;;;;;4942563;29;20810;-79
2023/04/13 15:52:47;;;;;;;0.60;0.10;;;12.80;99.90;;;;;;4942158;29;20471;-81
2023/04/13 15:55:16;;;;;;;0.60;0.10;;;;;;;;;;4944684;29;20484;-80
2023/04/13 15:57:44;;;;;;;0.60;0.10;;;;;;;;;;4946337;29;20537;-79
2023/04/13 16:00:13;;;;;;;0.60;0.10;;;12.90;99.90;;;;;;4944537;29;20451;-79
2023/04/13 16:02:41;;;;;;;0.60;0.10;;;12.90;99.90;;;;;;4941744;29;20460;-80
2023/04/13 16:05:09;;;;;;;0.60;0.10;;;12.80;99.90;;;;;;4942188;29;20474;-82
2023/04/13 16:07:37;;;;;;;0.60;0.10;;;12.70;99.90;;;;;;4941996;29;20851;-79
2023/04/13 16:10:06;;;;;;;0.60;0.10;;;12.70;99.90;;;;;;4941663;29;20462;-81
2023/04/13 16:12:37;;;;;;;0.60;0.10;;;;;;;;;;4943523;29;20986;-78
2023/04/13 16:15:06;;;;;;;0.60;0.10;;;;;;;;;;4940832;29;20820;-79
2023/04/13 16:17:39;;;;;;;0.60;0.20;;;12.60;99.90;;;;;;4942060;29;20468;-79
2023/04/13 16:20:16;;;;;;;0.60;0.20;;;;;;;;;;4943629;29;20533;-79
2023/04/13 16:22:47;;;;;;;0.60;0.10;;;12.30;99.90;;;;;;4942057;29;20444;-79
2023/04/13 16:25:16;;;;;;;0.60;0.10;;;12.30;99.90;;;;;;4933670;29;20477;-80
2023/04/13 16:27:47;;;;;;;0.60;0.10;;;;;;;;;;4926343;29;20456;-79
2023/04/13 16:30:16;;;;;;;0.60;0.10;;;12.20;99.90;;;;;;4932904;29;20451;-79
2023/04/13 16:32:45;;;;;;;0.60;0.10;;;12.20;99.90;;;;;;4938298;29;20475;-79
2023/04/13 16:35:14;;;;;;;0.60;0.10;;;;;;;;;;4943215;29;20477;-79
2023/04/13 16:37:42;;;;;;;0.60;0.10;;;12.10;99.90;;;;;;4928917;29;20445;-80
2023/04/13 16:40:11;;;;;;;0.60;0.10;;;12.20;99.90;;;;;;4940396;29;20479;-79
2023/04/13 16:42:39;;;;;;;0.60;0.10;;;12.20;99.90;;;;;;4931611;29;20451;-76
2023/04/13 16:45:10;;;;;;;0.60;0.10;;;12.30;99.90;;;;;;4944409;29;20483;-77
2023/04/13 16:47:42;;;;;;;0.60;0.10;;;12.40;99.90;;;;;;4947923;29;20445;-80
2023/04/13 16:50:11;;;;;;;0.60;0.10;;;12.30;99.90;;;;;;4942123;29;20473;-78
2023/04/13 16:52:39;;;;;;;0.60;0.10;;;12.30;99.90;;;;;;4934900;29;20434;-82
2023/04/13 16:55:07;;;;;;;0.60;0.10;;;12.20;99.90;;;;;;4938355;29;20477;-78
2023/04/13 16:57:35;;;;;;;0.60;0.10;;;12.30;99.90;;;;;;4936372;29;20503;-79
2023/04/13 17:00:05;;;;;;;0.60;0.10;;;12.20;99.90;;;;;;4931437;29;20446;-80
2023/04/13 17:02:35;;;;;;;0.60;0.10;;;;;;;;;;4944599;29;20497;-81
2023/04/13 17:05:05;;;;;;;0.60;0.10;;;12.30;99.90;;;;;;4947927;29;20470;-82
2023/04/13 17:07:33;;;;;;;0.60;0.10;;;12.30;99.90;;;;;;4951151;29;20466;-80
2023/04/13 17:10:01;;;;;;;0.60;0.10;;;12.30;99.90;;;;;;4941353;29;21048;-78
2023/04/13 17:12:29;;;;;;;0.60;0.10;;;12.30;99.90;;;;;;4950367;29;20434;-78
2023/04/13 17:14:57;;;;;;;0.60;0.10;;;12.30;99.90;;;;;;4935867;29;20467;-80
2023/04/13 17:17:25;;;;;;;0.60;0.10;;;12.30;99.90;;;;;;4939538;29;20514;-80
2023/04/13 17:19:55;;;;;;;0.60;0.10;;;12.40;99.90;;;;;;4945614;29;20444;-77
2023/04/13 17:22:23;;;;;;;0.60;0.10;;;12.40;99.90;;;;;;4945965;29;21161;-78
2023/04/13 17:24:51;;;;;;;0.60;0.10;;;12.30;99.90;;;;;;4946493;29;20470;-77
2023/04/13 17:27:19;;;;;;;0.60;0.20;;;12.20;99.90;;;;;;4946763;29;20443;-78